Time;durP1;ratioP1;P1;durP2;ratioP2;P2;SDS_P1;SDS_P2;PMS_P1;PMS_P2;Temp;Humidity;BMP_temperature;BMP_pressure;BME280_temperature;BME280_humidity;BME280_pressure;Samples;Min_cycle;Max_cycle;Signal;HPM_P1;HPM_P2
2022/08/28 00:01:29;;;;;;;;;;;;;;;23.72;70.27;100975.66;5047063;28;2859;-63
2022/08/28 00:03:56;;;;;;;;;;;;;;;23.72;70.35;100975.66;5050577;28;2815;-64
2022/08/28 00:06:22;;;;;;;;;;;;;;;23.72;70.03;100972.75;5048768;28;3206;-63
2022/08/28 00:08:48;;;;;;;;;;;;;;;23.72;70.16;100975.66;5053864;28;2771;-63
2022/08/28 00:11:15;;;;;;;;;;;;;;;23.72;70.32;100972.75;5053685;28;2814;-63
2022/08/28 00:13:41;;;;;;;;;;;;;;;23.72;70.08;100969.88;5056198;28;2787;-63
2022/08/28 00:16:08;;;;;;;;;;;;;;;23.72;70.11;100981.44;5049665;28;2773;-63
2022/08/28 00:18:34;;;;;;;;;;;;;;;23.71;70.14;100979.97;5052180;28;2812;-63
2022/08/28 00:21:01;;;;;;;;;;;;;;;23.70;70.32;100981.34;5054630;28;2863;-63
2022/08/28 00:23:27;;;;;;;;;;;;;;;23.70;70.07;100995.81;5053583;28;2729;-63
2022/08/28 00:26:07;;;;;;;;;;;;;;;23.70;70.00;100987.13;5047250;28;2863;-64
2022/08/28 00:28:34;;;;;;;;;;;;;;;23.73;70.13;100987.94;5056164;28;3062;-64
2022/08/28 00:31:00;;;;;;;;;;;;;;;23.75;70.00;100988.78;5056240;28;2799;-63
2022/08/28 00:33:28;;;;;;;;;;;;;;;23.74;70.00;100990.19;5051562;28;3444;-64
2022/08/28 00:35:55;;;;;;;;;;;;;;;23.74;70.09;100984.41;5054422;28;2878;-62
2022/08/28 00:38:21;;;;;;;;;;;;;;;23.73;70.04;100982.94;5051933;28;2760;-62
2022/08/28 00:40:51;;;;;;;;;;;;;;;23.73;70.09;100991.59;5050096;28;2829;-63
2022/08/28 00:43:21;;;;;;;;;;;;;;;23.73;70.22;100988.72;5052457;28;2816;-63
2022/08/28 00:45:47;;;;;;;;;;;;;;;23.72;70.28;100993.00;5055386;28;2752;-63
2022/08/28 00:48:13;;;;;;;;;;;;;;;23.72;70.03;100981.44;5053383;28;2946;-63
2022/08/28 00:53:26;;;;;;;;;;;;;;;23.71;70.30;100987.88;5054839;28;2768;-62
2022/08/28 00:55:58;;;;;;;;;;;;;;;23.70;70.10;100981.34;5055086;28;2939;-62
2022/08/28 00:58:25;;;;;;;;;;;;;;;23.70;70.24;100978.47;5056812;28;2995;-62
2022/08/28 01:00:51;;;;;;;;;;;;;;;23.70;70.00;100977.72;5049636;28;2847;-62
2022/08/28 01:03:17;;;;;;;;;;;;;;;23.71;70.01;100979.97;5047587;28;2845;-63
2022/08/28 01:05:46;;;;;;;;;;;;;;;23.70;70.16;100966.91;5052609;28;3181;-63
2022/08/28 01:08:13;;;;;;;;;;;;;;;23.71;70.19;100979.97;5047760;28;2930;-63
2022/08/28 01:10:39;;;;;;;;;;;;;;;23.69;70.14;100977.00;5051510;28;2935;-63
2022/08/28 01:13:06;;;;;;;;;;;;;;;23.68;70.23;100972.59;5055452;28;2794;-63
2022/08/28 01:15:32;;;;;;;;;;;;;;;23.69;70.23;100977.00;5056146;28;2802;-63
2022/08/28 01:18:00;;;;;;;;;;;;;;;23.70;70.22;100971.94;5050436;28;2808;-63
2022/08/28 01:20:33;;;;;;;;;;;;;;;23.69;70.34;100970.47;5049809;28;2854;-62
2022/08/28 01:23:08;;;;;;;;;;;;;;;23.70;70.12;100977.72;5053406;28;2827;-63
2022/08/28 01:25:35;;;;;;;;;;;;;;;23.69;70.38;100979.16;5052875;28;2878;-62
2022/08/28 01:28:02;;;;;;;;;;;;;;;23.69;70.10;100982.78;5054540;28;2796;-62
2022/08/28 01:30:30;;;;;;;;;;;;;;;23.68;70.20;100981.28;5048886;28;2810;-62
2022/08/28 01:32:57;;;;;;;;;;;;;;;23.69;70.20;100993.59;5051384;28;2650;-63
2022/08/28 01:35:25;;;;;;;;;;;;;;;23.69;70.21;100984.94;5050576;28;2835;-62
2022/08/28 01:37:51;;;;;;;;;;;;;;;23.67;70.17;100991.38;5053718;28;2807;-63
2022/08/28 01:40:21;;;;;;;;;;;;;;;23.69;70.09;100985.66;5052570;28;2830;-63
2022/08/28 01:42:49;;;;;;;;;;;;;;;23.68;70.33;100992.13;5059929;28;2846;-62
2022/08/28 01:45:15;;;;;;;;;;;;;;;23.67;70.34;100991.38;5052645;28;2972;-63
2022/08/28 01:47:42;;;;;;;;;;;;;;;23.66;70.36;100989.88;5051246;28;2815;-63
2022/08/28 01:50:10;;;;;;;;;;;;;;;23.67;69.86;100987.75;5055504;28;2805;-63
2022/08/28 01:52:37;;;;;;;;;;;;;;;23.65;70.13;100988.41;5054966;28;3133;-63
2022/08/28 01:55:04;;;;;;;;;;;;;;;23.65;70.18;100994.19;5053726;28;2926;-62
2022/08/28 01:57:31;;;;;;;;;;;;;;;23.67;69.77;100990.66;5054188;28;2772;-63
2022/08/28 01:59:57;;;;;;;;;;;;;;;23.66;69.67;100992.78;5050247;28;2740;-63
2022/08/28 02:02:23;;;;;;;;;;;;;;;23.66;69.83;100986.25;5052750;28;2886;-63
2022/08/28 02:04:51;;;;;;;;;;;;;;;23.65;69.75;100994.19;5053766;28;2861;-62
2022/08/28 02:07:17;;;;;;;;;;;;;;;23.63;69.60;100997.00;5053665;28;2932;-63
2022/08/28 02:09:43;;;;;;;;;;;;;;;23.63;69.74;100989.06;5056432;28;2711;-63
2022/08/28 02:12:10;;;;;;;;;;;;;;;23.63;69.60;100997.00;5052092;28;2885;-62
2022/08/28 02:14:37;;;;;;;;;;;;;;;23.62;69.64;100989.75;5052840;28;2796;-63
2022/08/28 02:17:03;;;;;;;;;;;;;;;23.63;69.44;100991.22;5048977;28;2962;-63
2022/08/28 02:19:31;;;;;;;;;;;;;;;23.61;69.32;100991.88;5054098;28;2613;-63
2022/08/28 02:21:57;;;;;;;;;;;;;;;23.61;69.09;100991.16;5049810;28;2956;-63
2022/08/28 02:24:23;;;;;;;;;;;;;;;23.62;68.94;100995.53;5051272;28;2792;-63
2022/08/28 02:26:50;;;;;;;;;;;;;;;23.62;68.72;100996.28;5053424;28;2824;-63
2022/08/28 02:29:17;;;;;;;;;;;;;;;23.62;68.72;101004.22;5051541;28;2990;-63
2022/08/28 02:31:43;;;;;;;;;;;;;;;23.62;68.67;101001.31;5053866;28;2931;-63
2022/08/28 02:34:10;;;;;;;;;;;;;;;23.61;68.75;101005.59;5053458;28;2761;-63
2022/08/28 02:36:38;;;;;;;;;;;;;;;23.61;68.62;101002.72;5051418;28;2915;-63
2022/08/28 02:39:05;;;;;;;;;;;;;;;23.60;68.44;101004.88;5054701;28;2658;-63
2022/08/28 02:41:31;;;;;;;;;;;;;;;23.59;68.44;101011.31;5053846;28;2851;-62
2022/08/28 02:43:58;;;;;;;;;;;;;;;23.60;68.59;101007.03;5053990;28;2831;-63
2022/08/28 02:46:25;;;;;;;;;;;;;;;23.60;68.30;101009.94;5050527;28;3389;-62
2022/08/28 02:48:51;;;;;;;;;;;;;;;23.59;68.30;100999.75;5054195;28;2841;-62
2022/08/28 02:51:18;;;;;;;;;;;;;;;23.59;67.96;101002.66;5053058;28;2922;-63
2022/08/28 02:53:45;;;;;;;;;;;;;;;23.59;67.95;101002.66;5054727;28;3224;-63
2022/08/28 02:56:11;;;;;;;;;;;;;;;23.59;68.05;101008.44;5051989;28;2858;-63
2022/08/28 02:58:38;;;;;;;;;;;;;;;23.59;67.91;101014.97;5053759;28;2764;-62
2022/08/28 03:01:05;;;;;;;;;;;;;;;23.60;67.86;101012.81;5065831;28;2811;-63
2022/08/28 03:03:32;;;;;;;;;;;;;;;23.60;67.65;101004.16;5055047;28;2939;-63
2022/08/28 03:05:59;;;;;;;;;;;;;;;23.59;67.40;101005.53;5052117;28;2831;-62
2022/08/28 03:08:25;;;;;;;;;;;;;;;23.58;67.54;100998.28;5054012;28;2822;-62
2022/08/28 03:10:52;;;;;;;;;;;;;;;23.57;67.53;100999.69;5052789;28;2845;-62
2022/08/28 03:13:19;;;;;;;;;;;;;;;23.57;67.43;101006.22;5053286;28;2780;-62
2022/08/28 03:15:52;;;;;;;;;;;;;;;23.57;67.38;101005.47;5050569;28;2855;-63
2022/08/28 03:18:21;;;;;;;;;;;;;;;23.56;67.29;101001.09;5051995;28;2630;-63
2022/08/28 03:20:47;;;;;;;;;;;;;;;23.58;66.99;101006.97;5051729;28;2749;-63
2022/08/28 03:23:26;;;;;;;;;;;;;;;23.57;67.02;100999.69;5048780;28;2865;-63
2022/08/28 03:26:03;;;;;;;;;;;;;;;23.57;66.95;101000.44;5052411;28;2893;-63
2022/08/28 03:28:32;;;;;;;;;;;;;;;23.56;66.91;101006.88;5054260;28;2590;-63
2022/08/28 03:30:58;;;;;;;;;;;;;;;23.54;66.95;101006.81;5053518;28;3059;-63
2022/08/28 03:33:25;;;;;;;;;;;;;;;23.56;66.88;101015.56;5052637;28;2974;-63
2022/08/28 03:35:52;;;;;;;;;;;;;;;23.55;66.86;101011.19;5051120;28;2827;-63
2022/08/28 03:38:18;;;;;;;;;;;;;;;23.55;66.80;101011.19;5053945;28;2931;-63
2022/08/28 03:40:45;;;;;;;;;;;;;;;23.54;66.58;101012.59;5053053;28;2755;-63
2022/08/28 03:43:16;;;;;;;;;;;;;;;23.53;66.82;101011.13;5047989;28;2833;-63
2022/08/28 03:45:50;;;;;;;;;;;;;;;23.55;66.63;101014.09;5051477;28;2760;-62
2022/08/28 03:48:18;;;;;;;;;;;;;;;23.54;66.59;101012.59;5053899;28;2861;-63
2022/08/28 03:50:45;;;;;;;;;;;;;;;23.52;66.34;101016.13;5051925;28;2776;-63
2022/08/28 03:53:13;;;;;;;;;;;;;;;23.52;66.49;101012.50;5051115;28;3347;-63
2022/08/28 03:55:40;;;;;;;;;;;;;;;23.53;66.47;101008.97;5051049;28;2785;-63
2022/08/28 03:58:07;;;;;;;;;;;;;;;23.53;66.34;101005.34;5050107;28;2836;-62
2022/08/28 04:00:34;;;;;;;;;;;;;;;23.53;66.28;101016.91;5049655;28;2760;-63
2022/08/28 04:03:00;;;;;;;;;;;;;;;23.52;66.09;101012.50;5052505;28;2941;-63
2022/08/28 04:05:27;;;;;;;;;;;;;;;23.51;66.08;101016.81;5055929;28;2851;-63
2022/08/28 04:07:53;;;;;;;;;;;;;;;23.51;65.91;101025.50;5054365;28;3326;-63
2022/08/28 04:10:20;;;;;;;;;;;;;;;23.51;65.99;101028.38;5057602;28;2786;-63
2022/08/28 04:12:46;;;;;;;;;;;;;;;23.50;66.06;101026.88;5049553;28;3441;-63
2022/08/28 04:15:13;;;;;;;;;;;;;;;23.50;65.89;101029.78;5055669;28;3138;-63
2022/08/28 04:17:40;;;;;;;;;;;;;;;23.50;65.76;101030.53;5057403;28;2871;-63
2022/08/28 04:20:07;;;;;;;;;;;;;;;23.49;65.63;101034.09;5055860;28;2796;-63
2022/08/28 04:22:33;;;;;;;;;;;;;;;23.48;65.74;101033.34;5051278;28;2812;-63
2022/08/28 04:24:59;;;;;;;;;;;;;;;23.50;64.98;101044.22;5057326;28;2883;-63
2022/08/28 04:27:26;;;;;;;;;;;;;;;23.49;64.41;101048.53;5055914;28;2860;-63
2022/08/28 04:29:52;;;;;;;;;;;;;;;23.48;64.86;101047.03;5053374;28;2788;-63
2022/08/28 04:32:19;;;;;;;;;;;;;;;23.42;63.44;101054.09;5054784;28;2879;-63
2022/08/28 04:34:45;;;;;;;;;;;;;;;23.15;62.33;101057.41;5057951;28;2750;-63
2022/08/28 04:37:11;;;;;;;;;;;;;;;23.14;62.70;101058.81;5055801;28;2852;-63
2022/08/28 04:39:38;;;;;;;;;;;;;;;23.22;62.64;101062.00;5051275;28;2827;-63
2022/08/28 04:42:04;;;;;;;;;;;;;;;23.26;62.56;101059.28;5055178;28;3014;-63
2022/08/28 04:44:31;;;;;;;;;;;;;;;23.27;62.84;101060.75;5055949;28;2768;-63
2022/08/28 04:46:57;;;;;;;;;;;;;;;23.28;62.56;101065.13;5049911;28;2753;-63
2022/08/28 04:49:24;;;;;;;;;;;;;;;23.32;62.53;101067.41;5054353;28;2878;-63
2022/08/28 04:51:51;;;;;;;;;;;;;;;23.30;62.54;101062.31;5050597;28;2919;-63
2022/08/28 04:54:17;;;;;;;;;;;;;;;23.31;62.46;101066.69;5049492;28;2780;-63
2022/08/28 04:56:45;;;;;;;;;;;;;;;23.30;62.48;101068.09;5051873;28;2790;-63
2022/08/28 04:59:11;;;;;;;;;;;;;;;23.27;62.30;101069.41;5053471;28;2871;-63
2022/08/28 05:01:38;;;;;;;;;;;;;;;23.26;62.49;101079.50;5049441;28;2883;-63
2022/08/28 05:04:04;;;;;;;;;;;;;;;23.27;62.57;101072.28;5053650;28;2800;-63
2022/08/28 05:06:31;;;;;;;;;;;;;;;23.27;62.11;101071.56;5053615;28;2843;-63
2022/08/28 05:08:58;;;;;;;;;;;;;;;23.24;62.40;101072.91;5051692;28;2669;-63
2022/08/28 05:11:25;;;;;;;;;;;;;;;23.21;62.06;101069.94;5054671;28;2930;-63
2022/08/28 05:14:00;;;;;;;;;;;;;;;23.21;61.90;101072.81;5051671;28;2783;-63
2022/08/28 05:16:26;;;;;;;;;;;;;;;23.23;61.61;101068.50;5052483;28;3267;-63
2022/08/28 05:18:52;;;;;;;;;;;;;;;23.21;61.90;101075.72;5056281;28;2874;-63
2022/08/28 05:21:20;;;;;;;;;;;;;;;23.24;61.59;101073.63;5054992;28;2791;-63
2022/08/28 05:23:50;;;;;;;;;;;;;;;23.23;61.50;101077.94;5050098;28;3181;-63
2022/08/28 05:26:16;;;;;;;;;;;;;;;23.20;61.48;101079.25;5054604;28;2788;-63
2022/08/28 05:28:42;;;;;;;;;;;;;;;23.17;61.36;101080.59;5053124;28;2772;-63
2022/08/28 05:31:09;;;;;;;;;;;;;;;23.19;61.55;101077.78;5053006;28;2792;-63
2022/08/28 05:33:36;;;;;;;;;;;;;;;23.21;61.60;101086.53;5046840;28;2907;-63
2022/08/28 05:36:03;;;;;;;;;;;;;;;23.20;61.04;101091.56;5053987;28;2806;-63
2022/08/28 05:38:29;;;;;;;;;;;;;;;23.17;61.09;101080.59;5054098;28;3163;-63
2022/08/28 05:40:56;;;;;;;;;;;;;;;23.15;60.93;101087.03;5050709;28;2729;-63
2022/08/28 05:43:24;;;;;;;;;;;;;;;23.13;61.26;101089.09;5054047;28;2806;-63
2022/08/28 05:45:57;;;;;;;;;;;;;;;23.16;60.94;101090.69;5050290;28;2795;-64
2022/08/28 05:48:25;;;;;;;;;;;;;;;23.14;60.97;101087.72;5056888;28;2770;-63
2022/08/28 05:50:57;;;;;;;;;;;;;;;23.15;60.69;101089.91;5053166;28;3075;-63
2022/08/28 05:53:24;;;;;;;;;;;;;;;23.12;60.99;101090.50;5053619;28;2867;-63
2022/08/28 05:55:51;;;;;;;;;;;;;;;23.09;60.73;101091.81;5052199;28;2811;-64
2022/08/28 05:58:27;;;;;;;;;;;;;;;23.12;60.89;101084.72;5053825;28;2995;-64
2022/08/28 06:00:54;;;;;;;;;;;;;;;23.13;61.00;101092.72;5051885;28;2985;-63
2022/08/28 06:03:21;;;;;;;;;;;;;;;23.10;60.86;101096.22;5052424;28;2795;-64
2022/08/28 06:05:54;;;;;;;;;;;;;;;23.12;60.58;101096.28;5051213;28;3113;-64
2022/08/28 06:08:21;;;;;;;;;;;;;;;23.09;60.87;101091.81;5053782;28;2902;-64
2022/08/28 06:10:49;;;;;;;;;;;;;;;23.10;60.58;101094.06;5051287;28;2797;-64
2022/08/28 06:13:16;;;;;;;;;;;;;;;23.09;60.51;101100.47;5053768;28;2791;-64
2022/08/28 06:15:44;;;;;;;;;;;;;;;23.08;60.50;101096.88;5048234;28;2847;-64
2022/08/28 06:18:11;;;;;;;;;;;;;;;23.09;60.69;101097.59;5047086;28;2851;-64
2022/08/28 06:20:40;;;;;;;;;;;;;;;23.06;60.80;101087.38;5052635;28;2832;-63
2022/08/28 06:23:07;;;;;;;;;;;;;;;23.08;60.56;101093.25;5050798;28;2736;-64
2022/08/28 06:25:37;;;;;;;;;;;;;;;23.06;60.84;101096.03;5048866;28;2910;-63
2022/08/28 06:28:04;;;;;;;;;;;;;;;23.09;60.36;101106.25;5051631;28;2828;-63
2022/08/28 06:30:30;;;;;;;;;;;;;;;23.07;60.64;101104.06;5054000;28;2815;-64
2022/08/28 06:32:57;;;;;;;;;;;;;;;23.04;60.81;101110.41;5052407;28;2826;-63
2022/08/28 06:35:23;;;;;;;;;;;;;;;23.06;60.68;101110.50;5053723;28;2707;-63
2022/08/28 06:37:50;;;;;;;;;;;;;;;22.97;60.41;101110.13;5050536;28;2795;-64
2022/08/28 06:40:16;;;;;;;;;;;;;;;21.81;62.58;101108.16;5052612;28;3363;-70
2022/08/28 06:42:43;;;;;;;;;;;;;;;21.53;63.62;101102.56;5054192;28;2763;-72
2022/08/28 06:45:11;;;;;;;;;;;;;;;21.57;63.79;101108.53;5052524;28;2782;-71
2022/08/28 06:47:37;;;;;;;;;;;;;;;21.08;64.75;101114.91;5052419;28;2911;-72
2022/08/28 06:50:03;;;;;;;;;;;;;;;21.07;64.75;101122.03;5053258;28;2693;-70
2022/08/28 06:52:30;;;;;;;;;;;;;;;20.79;65.31;101127.16;5055269;28;3175;-69
2022/08/28 06:54:56;;;;;;;;;;;;;;;21.09;64.58;101130.78;5049327;28;3282;-68
2022/08/28 06:57:24;;;;;;;;;;;;;;;21.04;64.72;101137.72;5048680;28;2709;-69
2022/08/28 06:59:54;;;;;;;;;;;;;;;21.08;64.56;101137.94;5047625;28;2843;-69
2022/08/28 07:02:21;;;;;;;;;;;;;;;21.11;64.67;101142.38;5050363;28;2779;-68
2022/08/28 07:04:53;;;;;;;;;;;;;;;20.77;65.31;101139.31;5052760;28;2503;-69
2022/08/28 07:07:19;;;;;;;;;;;;;;;20.53;66.26;101135.97;5050166;28;3209;-69
2022/08/28 07:09:57;;;;;;;;;;;;;;;20.69;65.93;101144.69;5051974;28;2879;-68
2022/08/28 07:12:24;;;;;;;;;;;;;;;20.71;65.90;101144.78;5049415;28;2772;-69
2022/08/28 07:14:50;;;;;;;;;;;;;;;20.97;65.19;101153.22;5048408;28;2727;-71
2022/08/28 07:17:17;;;;;;;;;;;;;;;20.68;65.91;101149.72;5042368;28;2930;-66
2022/08/28 07:19:43;;;;;;;;;;;;;;;20.96;65.54;101157.47;5045430;28;2822;-68
2022/08/28 07:22:09;;;;;;;;;;;;;;;21.21;65.08;101165.16;5048467;28;2885;-69
2022/08/28 07:24:36;;;;;;;;;;;;;;;21.59;63.97;101151.84;5046833;28;2974;-71
2022/08/28 07:27:04;;;;;;;;;;;;;;;21.82;63.24;101161.53;5042588;28;2734;-72
2022/08/28 07:29:30;;;;;;;;;;;;;;;21.95;62.81;101155.66;5051801;28;2729;-72
2022/08/28 07:31:57;;;;;;;;;;;;;;;22.06;62.67;101161.84;5054554;28;2882;-72
2022/08/28 07:34:24;;;;;;;;;;;;;;;22.12;62.50;101159.97;5055566;28;2608;-71
2022/08/28 07:36:52;;;;;;;;;;;;;;;22.15;62.28;101169.47;5052735;28;2823;-68
2022/08/28 07:39:19;;;;;;;;;;;;;;;22.15;62.34;101169.47;5059686;28;2792;-71
2022/08/28 07:41:45;;;;;;;;;;;;;;;22.24;62.39;101170.59;5052079;28;2776;-74
2022/08/28 07:46:58;;;;;;;;;;;;;;;22.30;62.04;101173.75;5060437;28;2641;-71
2022/08/28 07:49:24;;;;;;;;;;;;;;;22.34;61.96;101179.72;5058796;28;2630;-72
2022/08/28 07:51:51;;;;;;;;;;;;;;;22.35;62.28;101178.28;5058717;28;2521;-68
2022/08/28 07:54:19;;;;;;;;;;;;;;;22.42;61.98;101180.03;5051618;28;2757;-70
2022/08/28 07:56:46;;;;;;;;;;;;;;;22.44;62.00;101183.00;5059591;28;2695;-68
2022/08/28 07:59:12;;;;;;;;;;;;;;;22.42;61.79;101185.81;5057001;28;2697;-67
2022/08/28 08:01:42;;;;;;;;;;;;;;;22.44;61.79;101188.78;5055129;28;2740;-67
2022/08/28 08:04:11;;;;;;;;;;;;;;;22.46;61.87;101191.75;5058695;28;2768;-70
2022/08/28 08:06:38;;;;;;;;;;;;;;;22.53;61.86;101190.63;5053139;28;3345;-72
2022/08/28 08:09:04;;;;;;;;;;;;;;;22.61;61.03;101195.25;5058242;28;2840;-73
2022/08/28 08:11:31;;;;;;;;;;;;;;;22.54;61.60;101191.34;5053064;28;2832;-76
2022/08/28 08:14:02;;;;;;;;;;;;;;;22.52;61.74;101186.25;5057072;28;2088;-73
2022/08/28 08:16:34;;;;;;;;;;;;;;;22.57;61.53;101192.94;5059266;28;2968;-73
2022/08/28 08:19:00;;;;;;;;;;;;;;;22.59;61.41;101205.31;5061420;28;2465;-71
2022/08/28 08:21:27;;;;;;;;;;;;;;;22.63;61.78;101198.22;5051553;28;2935;-74
2022/08/28 08:23:56;;;;;;;;;;;;;;;22.65;61.95;101195.44;5055207;28;3227;-72
2022/08/28 08:26:22;;;;;;;;;;;;;;;22.65;62.12;101187.50;5056092;28;2832;-73
2022/08/28 08:28:49;;;;;;;;;;;;;;;22.64;62.28;101193.94;5058495;28;2803;-73
2022/08/28 08:31:17;;;;;;;;;;;;;;;22.64;62.65;101194.69;5057028;28;3335;-74
2022/08/28 08:33:44;;;;;;;;;;;;;;;22.56;63.20;101197.97;5055233;28;2910;-75
2022/08/28 08:36:11;;;;;;;;;;;;;;;22.65;63.02;101201.19;5051738;28;2816;-74
2022/08/28 08:38:37;;;;;;;;;;;;;;;22.69;62.84;101201.38;5053624;28;2633;-74
2022/08/28 08:41:04;;;;;;;;;;;;;;;22.69;62.89;101202.13;5056328;28;2644;-75
2022/08/28 08:43:32;;;;;;;;;;;;;;;22.72;62.68;101208.72;5056086;28;2866;-75
2022/08/28 08:45:58;;;;;;;;;;;;;;;22.73;62.41;101207.31;5055386;28;2862;-75
2022/08/28 08:48:29;;;;;;;;;;;;;;;22.75;62.58;101207.41;5055410;28;2878;-76
2022/08/28 08:50:57;;;;;;;;;;;;;;;22.75;62.34;101198.75;5054848;28;2808;-75
2022/08/28 08:53:50;;;;;;;;;;;;;;;22.78;62.55;101200.31;5058634;28;2703;-74
2022/08/28 08:56:17;;;;;;;;;;;;;;;22.80;62.52;101206.19;5050898;28;3097;-74
2022/08/28 08:58:44;;;;;;;;;;;;;;;22.80;62.24;101204.03;5055109;28;2569;-75
2022/08/28 09:01:20;;;;;;;;;;;;;;;22.81;62.43;101207.66;5053554;28;2578;-75
2022/08/28 09:04:01;;;;;;;;;;;;;;;22.80;62.62;101206.19;5055047;28;2647;-75
2022/08/28 09:06:35;;;;;;;;;;;;;;;22.81;62.46;101213.44;5055949;28;3245;-75
2022/08/28 09:09:02;;;;;;;;;;;;;;;22.82;62.33;101220.69;5062577;28;2521;-75
2022/08/28 09:11:31;;;;;;;;;;;;;;;22.84;62.52;101223.69;5053075;28;2596;-74
2022/08/28 09:14:11;;;;;;;;;;;;;;;22.85;62.50;101218.63;5055536;28;2807;-73
2022/08/28 09:16:38;;;;;;;;;;;;;;;22.85;62.33;101213.59;5059509;28;2111;-73
2022/08/28 09:19:05;;;;;;;;;;;;;;;22.84;62.35;101215.00;5057664;28;2594;-74
2022/08/28 09:21:33;;;;;;;;;;;;;;;22.86;62.21;101215.09;5056367;28;2771;-75
2022/08/28 09:24:01;;;;;;;;;;;;;;;22.88;62.31;101220.19;5054527;28;2776;-70
2022/08/28 09:26:32;;;;;;;;;;;;;;;22.87;62.10;101216.56;5059705;28;2537;-75
2022/08/28 09:29:05;;;;;;;;;;;;;;;22.87;62.16;101216.56;5052507;28;2843;-75
2022/08/28 09:31:36;;;;;;;;;;;;;;;22.87;62.17;101216.56;5055803;28;2737;-69
2022/08/28 09:34:41;;;;;;;;;;;;;;;22.88;61.93;101223.09;5052380;28;2837;-75
2022/08/28 09:37:08;;;;;;;;;;;;;;;22.90;62.04;101226.78;5001660;28;2945;-76
2022/08/28 09:39:36;;;;;;;;;;;;;;;22.91;61.75;101219.63;4982841;28;3024;-75
2022/08/28 09:45:02;;;;;;;;;;;;;;;22.92;62.04;101235.56;5055447;28;2682;-73
2022/08/28 09:47:39;;;;;;;;;;;;;;;22.93;62.20;101225.50;5058947;28;2883;-73
2022/08/28 09:50:24;;;;;;;;;;;;;;;23.19;61.83;101233.78;5054803;28;2725;-59
2022/08/28 09:52:51;;;;;;;;;;;;;;;23.39;60.96;101240.38;5052409;28;3462;-60
2022/08/28 09:55:23;;;;;;;;;;;;;;;23.33;61.66;101248.06;5053840;28;3050;-67
2022/08/28 09:57:50;;;;;;;;;;;;;;;23.40;61.36;101244.00;5049039;28;3369;-67
2022/08/28 10:00:17;;;;;;;;;;;;;;;23.44;61.05;101240.56;5051925;28;3129;-66
2022/08/28 10:02:56;;;;;;;;;;;;;;;23.51;60.77;101245.16;5051593;28;2842;-61
2022/08/28 10:05:30;;;;;;;;;;;;;;;23.54;60.60;101247.47;5054799;28;3317;-61
2022/08/28 10:08:00;;;;;;;;;;;;;;;23.49;60.33;101253.75;5050799;28;3042;-62
2022/08/28 10:10:31;;;;;;;;;;;;;;;23.30;60.18;101250.13;5045299;28;2798;-61
2022/08/28 10:13:03;;;;;;;;;;;;;;;23.24;60.51;101247.00;5052428;28;3424;-62
2022/08/28 10:15:48;;;;;;;;;;;;;;;22.91;61.48;101257.19;5053497;28;3158;-62
2022/08/28 10:18:34;;;;;;;;;;;;;;;22.97;61.17;101257.41;5051081;28;2871;-65
2022/08/28 10:21:09;;;;;;;;;;;;;;;23.02;61.69;101249.72;5051456;28;2860;-61
2022/08/28 10:23:39;;;;;;;;;;;;;;;23.05;61.33;101253.44;5052966;28;2824;-61
2022/08/28 10:26:18;;;;;;;;;;;;;;;23.03;62.03;101256.22;5052860;28;2804;-62
2022/08/28 10:28:45;;;;;;;;;;;;;;;23.10;61.52;101255.09;5052642;28;2787;-61
2022/08/28 10:31:17;;;;;;;;;;;;;;;23.09;61.94;101259.34;5052592;28;3848;-63
2022/08/28 10:33:57;;;;;;;;;;;;;;;23.14;61.76;101255.25;5050669;28;2793;-62
2022/08/28 10:36:30;;;;;;;;;;;;;;;23.02;61.79;101266.28;5051384;28;2718;-62
2022/08/28 10:39:06;;;;;;;;;;;;;;;23.04;61.72;101266.38;5050252;28;2875;-62
2022/08/28 10:41:35;;;;;;;;;;;;;;;23.05;61.34;101270.75;5053822;28;2784;-63
2022/08/28 10:44:01;;;;;;;;;;;;;;;23.06;61.69;101266.47;5052652;28;2800;-63
2022/08/28 10:46:31;;;;;;;;;;;;;;;22.98;61.07;101273.34;5057736;28;2851;-63
2022/08/28 10:49:09;;;;;;;;;;;;;;;22.92;61.26;101269.47;5056356;28;3154;-63
2022/08/28 10:51:38;;;;;;;;;;;;;;;22.91;61.26;101270.88;5052394;28;2640;-63
2022/08/28 10:54:24;;;;;;;;;;;;;;;22.94;61.38;101273.19;5051398;28;2879;-64
2022/08/28 10:56:59;;;;;;;;;;;;;;;22.94;61.19;101278.97;5054863;28;2791;-63
2022/08/28 10:59:25;;;;;;;;;;;;;;;22.98;61.72;101279.13;5051587;28;2944;-62
2022/08/28 11:01:52;;;;;;;;;;;;;;;23.04;61.29;101286.59;5055470;28;2818;-63
2022/08/28 11:04:19;;;;;;;;;;;;;;;23.00;61.37;101282.13;5049144;28;3001;-62
2022/08/28 11:06:51;;;;;;;;;;;;;;;23.00;61.76;101276.38;5045903;28;2866;-62
2022/08/28 11:09:28;;;;;;;;;;;;;;;23.11;61.41;101279.66;5051007;28;2819;-62
2022/08/28 11:11:59;;;;;;;;;;;;;;;23.15;61.43;101285.63;5047513;28;2892;-62
2022/08/28 11:14:32;;;;;;;;;;;;;;;23.13;61.73;101283.38;5047720;28;2922;-62
2022/08/28 11:17:03;;;;;;;;;;;;;;;23.16;61.78;101292.91;5049384;28;2803;-63
2022/08/28 11:19:37;;;;;;;;;;;;;;;23.19;61.83;101285.78;5050106;28;2787;-62
2022/08/28 11:22:11;;;;;;;;;;;;;;;23.15;61.67;101289.25;5055882;28;2849;-63
2022/08/28 11:24:40;;;;;;;;;;;;;;;23.19;61.52;101294.47;5051860;28;2895;-62
2022/08/28 11:27:15;;;;;;;;;;;;;;;23.17;61.60;101294.38;5050801;28;2787;-63
2022/08/28 11:30:01;;;;;;;;;;;;;;;23.13;61.58;101291.31;5055190;28;2602;-63
2022/08/28 11:32:30;;;;;;;;;;;;;;;23.14;61.76;101290.66;5052061;28;2931;-63
2022/08/28 11:34:57;;;;;;;;;;;;;;;23.15;61.86;101291.41;5050927;28;2638;-63
2022/08/28 11:37:37;;;;;;;;;;;;;;;23.17;61.62;101297.25;5049664;28;2568;-63
2022/08/28 11:40:16;;;;;;;;;;;;;;;23.19;61.57;101298.09;5049131;28;2787;-63
2022/08/28 11:42:47;;;;;;;;;;;;;;;23.22;61.87;101296.03;5050351;28;2832;-63
2022/08/28 11:45:17;;;;;;;;;;;;;;;23.20;62.01;101296.69;5052201;28;2623;-66
2022/08/28 11:47:45;;;;;;;;;;;;;;;23.20;62.00;101290.16;5050362;28;3067;-62
2022/08/28 11:50:13;;;;;;;;;;;;;;;23.19;61.55;101292.31;5050332;28;2791;-62
2022/08/28 11:52:56;;;;;;;;;;;;;;;23.20;61.72;101293.81;5048192;28;3053;-63
2022/08/28 11:55:31;;;;;;;;;;;;;;;23.19;61.80;101285.78;5053073;28;2644;-62
2022/08/28 11:58:02;;;;;;;;;;;;;;;23.21;61.62;101288.78;5050359;28;2553;-63
2022/08/28 12:00:45;;;;;;;;;;;;;;;23.21;61.75;101285.88;5052539;28;2640;-63
2022/08/28 12:03:13;;;;;;;;;;;;;;;23.21;61.38;101285.88;5048012;28;2792;-63
2022/08/28 12:05:43;;;;;;;;;;;;;;;23.22;61.45;101290.25;5050380;28;2650;-62
2022/08/28 12:08:10;;;;;;;;;;;;;;;23.21;61.39;101286.63;5053295;28;2775;-63
2022/08/28 12:10:37;;;;;;;;;;;;;;;23.21;61.36;101286.63;5049937;28;2604;-62
2022/08/28 12:13:03;;;;;;;;;;;;;;;23.23;61.67;101283.06;5056224;28;2632;-62
2022/08/28 12:15:30;;;;;;;;;;;;;;;23.19;61.67;101285.78;5055106;28;2817;-61
2022/08/28 12:18:23;;;;;;;;;;;;;;;23.22;61.19;101287.34;5054239;28;2621;-62
2022/08/28 12:20:49;;;;;;;;;;;;;;;23.16;61.62;101287.13;5028178;28;2577;-62
2022/08/28 12:23:22;;;;;;;;;;;;;;;23.15;61.60;101286.34;5053260;28;2596;-62
2022/08/28 12:25:48;;;;;;;;;;;;;;;23.14;61.79;101273.31;5056419;28;2761;-62
2022/08/28 12:28:25;;;;;;;;;;;;;;;23.08;61.73;101281.72;5053369;28;2529;-62
2022/08/28 12:31:03;;;;;;;;;;;;;;;23.07;62.04;101286.03;5059467;28;2135;-62
2022/08/28 12:33:38;;;;;;;;;;;;;;;23.11;62.19;101285.44;5052746;28;2635;-62
2022/08/28 12:36:05;;;;;;;;;;;;;;;23.10;62.35;101281.06;5056566;28;2563;-62
2022/08/28 12:38:31;;;;;;;;;;;;;;;23.11;61.93;101288.31;5056607;28;2560;-62
2022/08/28 12:40:58;;;;;;;;;;;;;;;23.13;61.87;101283.38;5055344;28;2799;-61
2022/08/28 12:43:27;;;;;;;;;;;;;;;23.08;62.19;101284.63;5053856;28;2817;-62
2022/08/28 12:45:55;;;;;;;;;;;;;;;23.11;62.05;101283.31;5056440;28;2640;-62
2022/08/28 12:48:30;;;;;;;;;;;;;;;23.12;61.68;101275.38;5056632;28;2302;-61
2022/08/28 12:51:03;;;;;;;;;;;;;;;23.18;61.92;101285.06;5051005;28;2624;-59
2022/08/28 12:53:37;;;;;;;;;;;;;;;23.19;61.91;101277.13;5056563;28;2590;-60
2022/08/28 12:56:03;;;;;;;;;;;;;;;23.12;61.72;101278.28;5057985;28;2633;-62
2022/08/28 12:58:31;;;;;;;;;;;;;;;23.12;61.50;101272.50;5056228;28;2457;-63
2022/08/28 13:01:05;;;;;;;;;;;;;;;23.09;61.22;101270.91;5057051;28;2728;-63
2022/08/28 13:03:32;;;;;;;;;;;;;;;23.10;61.24;101272.41;5054646;28;2727;-68
2022/08/28 13:06:05;;;;;;;;;;;;;;;23.12;60.66;101263.84;5053206;28;2662;-68